createdAt,value
2019-04-10T11:43:10.069Z,8.83
2019-04-10T11:45:44.116Z,6.30
2019-04-10T11:48:12.945Z,14.68
2019-04-10T11:50:44.432Z,6.95
2019-04-10T11:53:17.277Z,7.07
2019-04-10T11:55:50.210Z,5.87
2019-04-10T11:58:17.911Z,6.57
2019-04-10T17:16:36.464Z,6.03
2019-04-10T17:19:06.199Z,6.43
2019-04-10T17:21:36.253Z,5.93
2019-04-10T17:24:07.162Z,6.93
2019-04-10T17:26:37.177Z,5.77
2019-04-10T17:29:07.120Z,9.30
2019-04-10T17:31:36.825Z,6.07
2019-04-10T17:34:06.261Z,8.77
2019-04-10T17:36:36.811Z,12.57
2019-04-10T17:39:11.152Z,32.27
2019-04-10T17:41:41.781Z,34.77
2019-04-10T17:44:12.035Z,37.33
2019-04-10T17:46:41.733Z,26.53
2019-04-10T17:49:12.162Z,28.93
2019-04-10T17:51:42.348Z,27.03
2019-04-10T17:54:11.900Z,21.47
2019-04-10T17:56:41.516Z,24.13
2019-04-10T17:59:11.183Z,24.17
2019-04-10T18:01:41.160Z,18.37
2019-04-10T18:04:11.160Z,24.40
2019-04-10T18:06:44.026Z,20.23
2019-04-10T18:09:13.749Z,24.12
2019-04-10T18:11:44.273Z,17.80
2019-04-10T18:14:15.197Z,19.87
2019-04-10T18:16:46.372Z,19.07
2019-04-10T18:19:17.651Z,16.37
2019-04-10T18:21:47.878Z,19.17
2019-04-10T18:24:18.463Z,16.53
2019-04-10T18:26:51.947Z,16.05
2019-04-10T18:29:21.099Z,16.00
2019-04-10T18:31:52.093Z,14.70
2019-04-10T18:34:22.276Z,13.20
2019-04-10T18:36:52.441Z,16.87
2019-04-10T18:39:22.214Z,17.13
2019-04-10T18:41:52.000Z,15.13
2019-04-10T18:44:22.762Z,16.57
2019-04-10T18:46:54.263Z,13.78
2019-04-10T18:49:23.970Z,13.10
2019-04-10T18:51:54.275Z,13.73
2019-04-10T18:54:24.926Z,16.37
2019-04-10T18:56:55.673Z,15.40
2019-04-10T18:59:34.355Z,10.87
2019-04-10T19:02:17.930Z,12.73
2019-04-10T19:04:52.464Z,13.17
2019-04-10T19:07:22.918Z,11.80
2019-04-10T19:09:52.825Z,9.23
2019-04-10T19:12:22.480Z,15.83
2019-04-10T19:14:52.712Z,13.20
2019-04-10T19:17:22.521Z,10.47
2019-04-10T19:19:53.880Z,12.33
2019-04-10T19:22:24.344Z,11.70
2019-04-10T19:24:54.491Z,13.63
2019-04-10T19:27:25.536Z,12.03
2019-04-10T19:29:57.024Z,11.83
2019-04-10T19:32:31.293Z,11.35
2019-04-10T19:35:02.513Z,9.67
2019-04-10T19:37:34.560Z,11.43
2019-04-10T19:40:07.096Z,11.50
2019-04-10T19:42:37.623Z,12.80
2019-04-10T19:45:07.961Z,13.30
2019-04-10T19:47:38.852Z,11.40
2019-04-10T19:50:09.057Z,11.67
2019-04-10T19:52:38.988Z,8.73
2019-04-10T19:55:09.308Z,13.48
2019-04-10T19:57:39.563Z,10.93
2019-04-10T20:00:10.932Z,10.10
2019-04-10T20:02:41.602Z,12.70
2019-04-10T20:05:13.391Z,8.98
2019-04-10T20:07:43.113Z,11.07
2019-04-10T20:10:13.056Z,9.83
2019-04-10T20:12:44.577Z,10.25
2019-04-10T20:15:15.288Z,8.95
2019-04-10T20:17:46.315Z,11.93
2019-04-10T20:20:17.218Z,8.88
2019-04-10T20:22:48.013Z,10.32
2019-04-10T20:25:18.567Z,10.65
2019-04-10T20:27:48.419Z,8.87
2019-04-10T20:30:20.546Z,10.00
2019-04-10T20:32:50.364Z,9.03
2019-04-10T20:35:20.272Z,8.33
2019-04-10T20:37:51.155Z,10.53
2019-04-10T20:40:22.149Z,7.73
2019-04-10T20:42:57.016Z,10.20
2019-04-10T20:45:31.598Z,13.13
2019-04-10T20:48:02.354Z,8.53
2019-04-10T20:50:32.177Z,10.13
2019-04-10T20:53:03.724Z,8.28
2019-04-10T20:55:33.839Z,10.07
2019-04-10T20:58:05.820Z,8.93
2019-04-10T21:00:38.984Z,10.13
2019-04-10T21:03:09.641Z,8.88
2019-04-10T21:05:40.207Z,9.60
2019-04-10T21:08:11.595Z,7.90
2019-04-10T21:10:42.800Z,8.53
2019-04-10T21:13:12.991Z,10.00
2019-04-10T21:15:44.332Z,10.50
2019-04-10T21:18:15.333Z,8.63
2019-04-10T21:20:45.409Z,7.87
2019-04-10T21:23:15.143Z,9.20
2019-04-10T21:25:45.602Z,9.13
2019-04-10T21:28:16.270Z,6.40
2019-04-10T21:30:48.739Z,10.07
2019-04-10T21:33:25.972Z,7.80
2019-04-10T21:35:55.640Z,7.87
2019-04-10T21:38:25.296Z,10.10
2019-04-10T21:40:55.298Z,8.80
2019-04-10T21:43:26.128Z,6.95
2019-04-10T21:45:56.178Z,7.70
2019-04-10T21:48:27.671Z,9.13
2019-04-10T21:50:58.202Z,12.07
2019-04-10T21:53:28.665Z,12.07
2019-04-10T21:55:59.949Z,11.10
2019-04-10T21:58:30.418Z,10.93
2019-04-10T22:01:01.844Z,10.60
2019-04-10T22:03:33.777Z,11.88
2019-04-10T22:06:22.075Z,12.65
2019-04-10T22:08:54.095Z,8.47
2019-04-10T22:11:25.335Z,8.95
2019-04-10T22:13:55.179Z,10.73
2019-04-10T22:16:26.404Z,9.77
2019-04-10T22:18:56.712Z,10.18
2019-04-10T22:21:27.231Z,10.30
2019-04-10T22:23:57.468Z,10.53
2019-04-10T22:26:27.691Z,12.80
2019-04-10T22:28:57.606Z,11.27
2019-04-10T22:31:27.929Z,9.63
2019-04-10T22:33:58.392Z,11.97
2019-04-10T22:36:29.015Z,10.50
2019-04-10T22:38:58.749Z,9.57
2019-04-10T22:41:32.119Z,10.15
2019-04-10T22:44:01.199Z,7.83
2019-04-10T22:46:31.675Z,14.78
2019-04-10T22:49:04.173Z,13.10
2019-04-10T22:51:35.584Z,11.25
2019-04-10T22:54:06.086Z,16.07
2019-04-10T22:56:35.961Z,8.97
